Rossville, Ohio
Current Conditions -  °F | °C
As of 2:53 AM on Saturday 29 Nov 2014 (Local Time) from KHAO Reporting Station
Clear Clear  
Wind Chill: 35°   Ceiling: Unl
Heat Index: 35°   Visibility: 10mi
Dew Point: 20°   Wind: 3mph
Humidity: 54%   Direction: 120°ESE
Pressure: 30.08"   Gusts: NA
Location:  39.4158°N, 84.6488°W
Report Text: KHAO 290753Z AUTO 12003KT 10SM CLR 02/M07 A3008 RMK AO2 SLP192 T00171067
Loading
Personal Weather Stations






























Interactive Weather Map New forecast layout! Learn more

10-Day Weather Forecast

Advertisements
Track Severe Weather on mobile